Terminal Aerodrome Forecast
Issued by NWS

Home | Current Version | Previous Version | Text Only | Print | Product List | Glossary On
Versions: 1 2 3 4 5 6 7 8 9 10 11 12 13 14 15 16
429
FTUS45 KRIW 221100
TAFBPI
TAF
KBPI 221126Z 2212/2312 VRB05KT P6SM SCT020 BKN045
      TEMPO 2212/2215 BKN020
     FM221500 VRB05KT P6SM SCT040 BKN070
     FM222100 14007KT P6SM VCTS SCT035 BKN060CB
     FM230300 VRB06KT 6SM -SHRA SCT020 BKN035=

USA.gov is the U.S. government's official web portal to all federal, state and local government web resources and services.